Time;durP1;ratioP1;P1;durP2;ratioP2;P2;SDS_P1;SDS_P2;PMS_P1;PMS_P2;Temp;Humidity;BMP_temperature;BMP_pressure;BME280_temperature;BME280_humidity;BME280_pressure;Samples;Min_cycle;Max_cycle;Signal;HPM_P1;HPM_P2
2021/07/15 00:01:16;;;;;;;10.68;4.85;;;;;;;20.17;74.58;100676.41;1770617;80;21212;-58
2021/07/15 00:04:23;;;;;;;13.32;5.37;;;;;;;20.14;74.76;100674.63;1770530;80;21224;-57
2021/07/15 00:07:27;;;;;;;11.25;4.58;;;;;;;20.09;75.01;100678.63;1770308;81;21709;-57
2021/07/15 00:10:43;;;;;;;15.40;4.70;;;;;;;20.06;75.32;100678.53;1770154;81;21216;-58
2021/07/15 00:13:50;;;;;;;12.98;4.83;;;;;;;20.04;75.48;100668.73;1770336;80;21182;-58
2021/07/15 00:17:00;;;;;;;17.20;4.78;;;;;;;20.04;75.53;100670.13;1770337;81;21244;-58
2021/07/15 00:20:05;;;;;;;8.70;4.45;;;;;;;20.01;75.46;100670.03;1770926;80;21197;-58
2021/07/15 00:23:12;;;;;;;9.45;4.33;;;;;;;20.00;75.30;100674.42;1770909;81;21216;-57
2021/07/15 00:26:18;;;;;;;19.80;5.28;;;;;;;19.94;75.20;100665.62;1770740;80;21178;-58
2021/07/15 00:29:24;;;;;;;12.75;4.92;;;;;;;19.92;75.40;100665.00;1763398;81;21302;-58
2021/07/15 00:32:29;;;;;;;13.15;4.90;;;;;;;19.92;75.67;100665.00;1770660;81;21196;-58
2021/07/15 00:35:35;;;;;;;21.20;5.30;;;;;;;19.88;75.78;100663.24;1760039;81;21223;-58
2021/07/15 00:38:41;;;;;;;14.10;4.08;;;;;;;19.86;75.82;100668.70;1760134;81;21188;-58
2021/07/15 00:41:47;;;;;;;12.35;4.05;;;;;;;19.81;75.80;100668.53;1760109;81;21846;-58
2021/07/15 00:44:53;;;;;;;10.85;4.70;;;;;;;19.72;75.94;100669.91;1760090;81;21169;-58
2021/07/15 00:47:59;;;;;;;19.80;5.10;;;;;;;19.67;76.15;100666.95;1760048;81;21274;-57
2021/07/15 00:51:06;;;;;;;17.55;5.55;;;;;;;19.66;76.52;100669.44;1760035;81;21243;-58
2021/07/15 00:54:13;;;;;;;13.62;5.55;;;;;;;19.66;76.71;100670.30;1759984;81;21204;-58
2021/07/15 00:57:20;;;;;;;12.70;4.92;;;;;;;19.64;76.94;100666.89;1759979;81;21536;-58
2021/07/15 01:00:26;;;;;;;20.85;5.75;;;;;;;19.62;76.99;100669.04;1759999;81;21255;-57
2021/07/15 01:03:31;;;;;;;13.25;5.83;;;;;;;19.58;77.01;100665.03;1760009;81;21215;-58
2021/07/15 01:06:37;;;;;;;15.60;5.12;;;;;;;19.54;77.07;100671.23;1759996;81;21195;-58
2021/07/15 01:09:43;;;;;;;16.97;5.17;;;;;;;19.54;77.17;100669.32;1760131;81;21180;-57
2021/07/15 01:13:14;;;;;;;15.13;5.78;;;;;;;19.58;77.06;100662.78;1760225;81;21289;-59
2021/07/15 01:16:32;;;;;;;16.60;5.40;;;;;;;19.62;76.80;100666.79;1747070;81;21196;-59
2021/07/15 01:20:13;;;;;;;16.60;5.00;;;;;;;19.58;76.53;100671.11;1760017;81;21290;-59
2021/07/15 01:24:03;;;;;;;14.47;6.40;;;;;;;19.49;76.36;100675.26;1759986;81;21258;-58
2021/07/15 01:27:51;;;;;;;15.43;5.45;;;;;;;19.40;76.79;100671.05;1759997;81;21313;-58
2021/07/15 01:31:00;;;;;;;14.33;4.75;;;;;;;19.41;76.95;100667.20;1760035;81;21204;-58
2021/07/15 01:34:06;;;;;;;15.13;5.08;;;;;;;19.40;76.74;100672.43;1761543;78;21215;-58
2021/07/15 01:37:12;;;;;;;20.75;5.12;;;;;;;19.36;76.92;100666.47;1770997;80;21189;-58
2021/07/15 01:40:20;;;;;;;20.60;5.12;;;;;;;19.39;77.12;100667.44;1771823;80;21189;-58
2021/07/15 01:43:30;;;;;;;17.17;4.75;;;;;;;19.42;77.03;100670.28;1770594;81;21257;-58
2021/07/15 01:46:35;;;;;;;18.07;5.47;;;;;;;19.39;76.80;100667.97;1770740;81;21272;-58
2021/07/15 01:49:45;;;;;;;13.20;5.12;;;;;;;19.36;76.86;100665.64;1770924;81;21306;-58
2021/07/15 01:52:49;;;;;;;12.82;5.20;;;;;;;19.33;77.06;100667.48;1770781;81;21228;-58
2021/07/15 01:55:55;;;;;;;10.65;5.10;;;;;;;19.30;77.16;100673.80;1770535;81;21240;-58
2021/07/15 01:59:02;;;;;;;13.40;5.12;;;;;;;19.30;77.26;100677.09;1770686;81;21837;-58
2021/07/15 02:02:07;;;;;;;20.85;5.72;;;;;;;19.29;77.26;100677.66;1770750;81;21259;-59
2021/07/15 02:05:14;;;;;;;15.40;5.05;;;;;;;19.28;77.12;100674.55;1770893;80;21221;-59
2021/07/15 02:08:19;;;;;;;17.42;5.80;;;;;;;19.30;77.20;100672.94;1763928;81;21248;-59
2021/07/15 02:11:24;;;;;;;13.32;5.12;;;;;;;19.28;76.95;100674.55;1771359;80;21187;-59
2021/07/15 02:14:31;;;;;;;12.15;5.08;;;;;;;19.28;77.05;100673.16;1770907;80;21402;-59
2021/07/15 02:17:36;;;;;;;19.52;5.30;;;;;;;19.27;76.95;100677.52;1770915;81;21232;-59
2021/07/15 02:20:41;;;;;;;14.05;4.83;;;;;;;19.25;77.10;100672.72;1770800;81;21190;-59
2021/07/15 02:23:49;;;;;;;9.33;4.83;;;;;;;19.28;77.16;100669.55;1770866;80;21202;-59
2021/07/15 02:26:56;;;;;;;15.28;5.10;;;;;;;19.31;77.03;100669.93;1770737;79;21678;-59
2021/07/15 02:30:02;;;;;;;15.45;5.12;;;;;;;19.34;76.76;100673.64;1770869;80;21643;-58
2021/07/15 02:33:17;;;;;;;8.73;4.92;;;;;;;19.33;76.73;100679.98;1770778;81;21777;-58
2021/07/15 02:36:22;;;;;;;11.80;4.62;;;;;;;19.34;76.91;100675.03;1770174;79;21415;-58
2021/07/15 02:39:30;;;;;;;12.23;4.33;;;;;;;19.38;76.74;100675.99;1770492;80;21233;-58
2021/07/15 02:42:37;;;;;;;13.13;5.15;;;;;;;19.42;76.55;100673.06;1770913;80;21228;-58
2021/07/15 02:45:42;;;;;;;11.33;4.50;;;;;;;19.47;76.30;100674.63;1770803;80;21263;-58
2021/07/15 02:48:48;;;;;;;12.88;4.78;;;;;;;19.51;76.11;100670.30;1771726;80;21280;-57
2021/07/15 02:51:54;;;;;;;15.18;5.05;;;;;;;19.53;76.12;100672.33;1763381;81;21283;-58
2021/07/15 02:55:00;;;;;;;16.82;4.87;;;;;;;19.55;76.09;100672.40;1771493;80;21193;-59
2021/07/15 02:58:25;;;;;;;21.52;6.15;;;;;;;19.56;76.09;100676.04;1770810;80;21222;-59
2021/07/15 03:01:31;;;;;;;13.08;5.40;;;;;;;19.56;76.14;100676.89;1771569;80;21185;-57
2021/07/15 03:04:48;;;;;;;10.43;5.00;;;;;;;19.59;76.20;100674.19;1770950;80;21224;-58
2021/07/15 03:08:14;;;;;;;14.33;4.83;;;;;;;19.65;76.19;100675.52;1763726;80;21236;-58
2021/07/15 03:11:20;;;;;;;13.25;4.78;;;;;;;19.71;76.10;100681.55;1770905;80;21194;-58
2021/07/15 03:14:25;;;;;;;15.93;5.60;;;;;;;19.79;75.93;100677.66;1771161;80;21213;-56
2021/07/15 03:17:40;;;;;;;17.92;5.37;;;;;;;19.90;75.96;100682.47;1762132;81;21193;-57
2021/07/15 03:20:47;;;;;;;27.40;14.60;;;;;;;20.03;75.71;100686.47;1770177;80;21347;-59
2021/07/15 03:23:53;;;;;;;60.43;30.20;;;;;;;20.16;75.26;100684.45;1771132;80;21335;-58
2021/07/15 03:26:58;;;;;;;60.43;28.60;;;;;;;20.23;74.83;100684.37;1770670;81;21313;-58
2021/07/15 03:30:06;;;;;;;58.92;29.80;;;;;;;20.29;74.38;100687.63;1771751;79;21241;-57
2021/07/15 03:33:11;;;;;;;65.37;30.85;;;;;;;20.34;74.22;100686.39;1792204;79;21358;-57
2021/07/15 03:36:16;;;;;;;44.85;22.42;;;;;;;20.44;73.97;100686.67;1802747;79;21260;-57
2021/07/15 03:39:22;;;;;;;29.57;15.28;;;;;;;20.51;73.69;100682.75;1802213;79;21209;-58
2021/07/15 03:42:29;;;;;;;24.60;13.32;;;;;;;20.63;73.42;100686.97;1802113;79;21174;-59
2021/07/15 03:45:34;;;;;;;24.80;10.80;;;;;;;20.75;73.27;100684.59;1802152;79;21193;-59
2021/07/15 03:48:42;;;;;;;18.67;7.30;;;;;;;20.90;73.06;100691.09;1801992;79;21347;-58
2021/07/15 03:51:48;;;;;;;17.10;5.78;;;;;;;21.01;72.79;100683.94;1802667;79;21328;-58
2021/07/15 03:54:56;;;;;;;9.43;5.20;;;;;;;21.07;72.03;100689.94;1802752;78;21244;-58
2021/07/15 03:58:02;;;;;;;13.88;4.65;;;;;;;21.12;71.58;100695.09;1802578;79;21686;-58
2021/07/15 04:01:08;;;;;;;15.23;6.03;;;;;;;21.16;71.43;100703.30;1802605;79;21741;-60
2021/07/15 04:04:15;;;;;;;12.15;5.20;;;;;;;21.21;71.47;100703.44;1802542;79;22011;-60
2021/07/15 04:07:21;;;;;;;17.07;6.15;;;;;;;21.29;71.59;100698.92;1802542;79;21323;-59
2021/07/15 04:10:28;;;;;;;12.33;4.20;;;;;;;21.41;71.65;100702.58;1802855;79;21820;-59
2021/07/15 04:13:34;;;;;;;12.78;5.08;;;;;;;21.51;71.16;100701.46;1802636;79;21688;-58
2021/07/15 04:16:55;;;;;;;8.60;4.37;;;;;;;21.61;70.44;100698.09;1802677;79;21387;-59
2021/07/15 04:20:02;;;;;;;14.18;5.22;;;;;;;21.74;70.09;100700.09;1802305;79;21311;-58
2021/07/15 04:23:09;;;;;;;16.55;5.65;;;;;;;21.87;69.61;100692.06;1802232;79;21252;-58
2021/07/15 04:26:18;;;;;;;14.95;4.92;;;;;;;22.02;69.43;100691.05;1793700;79;21182;-59
2021/07/15 04:29:25;;;;;;;15.98;4.42;;;;;;;22.14;69.02;100688.56;1802806;79;21327;-58
2021/07/15 04:32:42;;;;;;;14.85;6.08;;;;;;;22.27;68.47;100687.99;1802285;79;21201;-59
2021/07/15 04:35:48;;;;;;;15.72;5.80;;;;;;;22.42;68.12;100691.14;1802561;79;21700;-61
2021/07/15 04:38:53;;;;;;;16.60;5.22;;;;;;;22.55;68.10;100690.34;1795915;78;21351;-60
2021/07/15 04:42:01;;;;;;;21.05;7.45;;;;;;;22.67;67.71;100686.98;1802039;79;21394;-60
2021/07/15 04:45:06;;;;;;;18.40;7.30;;;;;;;22.82;67.14;100692.02;1801803;79;21308;-61
2021/07/15 04:48:12;;;;;;;26.02;6.65;;;;;;;22.96;66.64;100690.65;1801847;79;21249;-60
2021/07/15 04:51:21;;;;;;;15.85;6.53;;;;;;;23.08;66.12;100690.89;1801922;78;21275;-61
2021/07/15 04:54:29;;;;;;;15.48;6.70;;;;;;;23.23;65.60;100691.17;1777242;79;21205;-60
2021/07/15 04:57:34;;;;;;;14.50;6.80;;;;;;;23.38;64.86;100689.25;1787231;79;21722;-62
2021/07/15 05:00:41;;;;;;;21.20;7.92;;;;;;;23.52;64.20;100685.02;1783507;79;21186;-60
2021/07/15 05:03:46;;;;;;;16.17;8.18;;;;;;;23.67;63.84;100685.30;1770034;81;21212;-61
2021/07/15 05:06:51;;;;;;;17.70;7.85;;;;;;;23.81;63.25;100685.79;1770439;79;21200;-64
2021/07/15 05:09:57;;;;;;;27.27;8.58;;;;;;;23.97;63.23;100674.64;1780615;79;21220;-63
2021/07/15 05:13:03;;;;;;;19.20;7.65;;;;;;;24.11;63.01;100680.16;1789430;79;21189;-64
2021/07/15 05:16:09;;;;;;;23.52;8.25;;;;;;;24.24;62.00;100687.34;1756270;79;21939;-61
2021/07/15 05:19:15;;;;;;;17.73;8.68;;;;;;;24.35;61.52;100674.65;1727660;82;21215;-61
2021/07/15 05:22:25;;;;;;;29.40;10.82;;;;;;;24.48;61.06;100679.02;1719836;82;21202;-63
2021/07/15 05:25:32;;;;;;;25.20;11.12;;;;;;;24.61;60.41;100679.47;1710906;82;21690;-60
2021/07/15 05:28:38;;;;;;;26.95;11.10;;;;;;;24.76;59.69;100677.45;1749934;82;21217;-61
2021/07/15 05:31:43;;;;;;;19.98;9.63;;;;;;;24.88;58.02;100674.80;1733926;82;21268;-60
2021/07/15 05:34:51;;;;;;;22.70;9.30;;;;;;;25.03;57.73;100680.59;1734796;82;21765;-60
2021/07/15 05:37:58;;;;;;;18.27;6.22;;;;;;;25.17;56.11;100685.75;1729863;82;21742;-59
2021/07/15 05:41:05;;;;;;;14.18;6.30;;;;;;;25.32;54.28;100688.19;1734570;79;21211;-60
2021/07/15 05:44:11;;;;;;;11.97;6.37;;;;;;;25.47;53.52;100686.09;1805040;79;21854;-60
2021/07/15 05:47:18;;;;;;;19.25;6.50;;;;;;;25.61;53.03;100691.01;1777820;79;21261;-60
2021/07/15 05:50:25;;;;;;;14.87;6.62;;;;;;;25.72;53.50;100693.36;1779442;79;21225;-60
2021/07/15 05:53:31;;;;;;;9.13;4.95;;;;;;;25.85;53.16;100688.68;1803092;78;21248;-59
2021/07/15 05:56:37;;;;;;;10.38;3.65;;;;;;;25.98;51.97;100685.42;1799729;79;21422;-59
2021/07/15 05:59:44;;;;;;;13.15;3.47;;;;;;;26.11;51.50;100677.44;1767516;80;21220;-61
2021/07/15 06:02:52;;;;;;;6.17;3.17;;;;;;;26.24;50.42;100686.76;1799701;79;21402;-62
2021/07/15 06:05:59;;;;;;;10.55;3.17;;;;;;;26.37;50.71;100681.22;1782203;79;21248;-63
2021/07/15 06:09:05;;;;;;;10.28;3.50;;;;;;;26.50;51.37;100682.14;1788889;79;21386;-62
2021/07/15 06:12:11;;;;;;;7.30;4.45;;;;;;;26.62;51.11;100683.33;1803821;79;21170;-61
2021/07/15 06:15:17;;;;;;;8.83;3.58;;;;;;;26.74;50.79;100680.61;1803313;79;21932;-62
2021/07/15 06:18:23;;;;;;;6.85;3.42;;;;;;;26.88;50.72;100680.96;1803638;79;21370;-62
2021/07/15 06:21:30;;;;;;;7.37;3.70;;;;;;;26.99;51.12;100677.06;1789121;79;21741;-63
2021/07/15 06:24:35;;;;;;;9.15;3.85;;;;;;;27.08;51.04;100673.98;1791539;79;21347;-63
2021/07/15 06:27:43;;;;;;;8.50;3.70;;;;;;;27.17;51.38;100672.31;1767796;80;21232;-62
2021/07/15 06:30:50;;;;;;;7.15;3.60;;;;;;;27.29;50.23;100673.78;1772155;79;21180;-61
2021/07/15 06:33:55;;;;;;;5.97;3.33;;;;;;;27.39;49.59;100675.20;1742752;82;21370;-61
2021/07/15 06:37:01;;;;;;;7.50;4.10;;;;;;;27.49;49.08;100668.20;1773017;79;21357;-64
2021/07/15 06:40:12;;;;;;;7.40;3.50;;;;;;;27.58;48.51;100663.69;1771448;80;21537;-64
2021/07/15 06:43:20;;;;;;;8.90;3.57;;;;;;;27.66;48.71;100660.33;1764465;80;21286;-63
2021/07/15 06:46:28;;;;;;;9.48;3.70;;;;;;;27.75;49.68;100652.99;1771787;80;21218;-65
2021/07/15 06:49:35;;;;;;;10.93;3.30;;;;;;;27.86;49.19;100656.08;1770501;80;21199;-64
2021/07/15 06:52:43;;;;;;;7.70;3.17;;;;;;;27.96;48.60;100656.67;1770072;80;21234;-63
2021/07/15 06:55:50;;;;;;;10.60;3.30;;;;;;;28.05;48.79;100649.33;1770346;80;21912;-62
2021/07/15 06:58:57;;;;;;;12.80;3.30;;;;;;;28.12;46.68;100645.67;1763730;80;21194;-64
2021/07/15 07:02:03;;;;;;;8.03;2.50;;;;;;;28.20;45.67;100647.91;1769908;80;21182;-63
2021/07/15 07:05:11;;;;;;;5.17;2.60;;;;;;;28.30;44.89;100647.89;1771754;79;21278;-63
2021/07/15 07:08:16;;;;;;;7.47;2.20;;;;;;;28.39;43.87;100636.30;1784360;79;21268;-61
2021/07/15 07:11:21;;;;;;;4.53;2.42;;;;;;;28.47;42.09;100634.86;1769373;80;21255;-61
2021/07/15 07:14:29;;;;;;;3.50;1.85;;;;;;;28.53;40.23;100627.55;1786477;79;21185;-63
2021/07/15 07:17:36;;;;;;;5.17;2.10;;;;;;;28.62;40.04;100630.03;1802134;79;21432;-63
2021/07/15 07:20:41;;;;;;;6.28;2.33;;;;;;;28.70;39.34;100629.44;1783834;79;21889;-63
2021/07/15 07:23:46;;;;;;;4.47;2.10;;;;;;;28.77;39.23;100620.67;1780529;79;21256;-64
2021/07/15 07:26:52;;;;;;;9.65;2.92;;;;;;;28.84;38.99;100620.63;1767941;79;21236;-63
2021/07/15 07:29:58;;;;;;;4.95;2.58;;;;;;;28.90;39.43;100620.05;1768612;80;21184;-66
2021/07/15 07:33:06;;;;;;;6.08;2.37;;;;;;;28.98;40.08;100620.29;1769616;80;21197;-64
2021/07/15 07:36:14;;;;;;;8.48;2.47;;;;;;;29.08;40.32;100620.83;1797752;79;21378;-59
2021/07/15 07:39:20;;;;;;;5.55;2.30;;;;;;;29.16;39.78;100615.98;1801491;79;21213;-61
2021/07/15 07:42:25;;;;;;;6.12;2.50;;;;;;;29.22;39.07;100617.03;1798028;79;21499;-63
2021/07/15 07:45:31;;;;;;;3.50;2.20;;;;;;;29.27;38.71;100608.28;1770904;79;21173;-62
2021/07/15 07:48:37;;;;;;;3.47;2.10;;;;;;;29.32;38.42;100610.48;1777598;79;21211;-61
2021/07/15 07:51:42;;;;;;;5.12;2.33;;;;;;;29.40;38.22;100604.80;1802417;79;21629;-63
2021/07/15 07:54:49;;;;;;;6.78;2.37;;;;;;;29.45;37.37;100605.59;1792853;78;21173;-63
2021/07/15 07:57:54;;;;;;;5.87;2.58;;;;;;;29.52;37.49;100607.52;1781895;79;21224;-63
2021/07/15 08:01:04;;;;;;;4.03;1.90;;;;;;;29.57;37.76;100610.30;1802190;79;21336;-62
2021/07/15 08:04:09;;;;;;;6.90;1.92;;;;;;;29.62;36.18;100619.28;1802376;79;21714;-64
2021/07/15 08:07:17;;;;;;;2.92;1.60;;;;;;;29.69;35.56;100619.24;1802326;79;21363;-64
2021/07/15 08:10:27;;;;;;;6.58;2.58;;;;;;;29.74;35.21;100619.77;1777188;79;21343;-60
2021/07/15 08:13:32;;;;;;;4.17;1.70;;;;;;;29.79;35.68;100617.75;1761605;81;21366;-60
2021/07/15 08:16:39;;;;;;;5.17;1.80;;;;;;;29.83;34.39;100610.35;1761720;81;21318;-64
2021/07/15 08:19:45;;;;;;;5.35;1.50;;;;;;;29.87;33.69;100608.64;1761774;81;21705;-62
2021/07/15 08:22:54;;;;;;;3.72;1.57;;;;;;;29.92;33.30;100604.92;1774070;79;21527;-63
2021/07/15 08:26:02;;;;;;;2.30;1.60;;;;;;;30.05;33.06;100606.45;1770347;80;21383;-63
2021/07/15 08:29:08;;;;;;;4.17;1.67;;;;;;;30.05;33.06;100606.45;1770103;80;21291;-61
2021/07/15 08:32:15;;;;;;;3.52;1.80;;;;;;;30.11;32.17;100612.31;1779517;79;21185;-63
2021/07/15 08:35:20;;;;;;;4.03;1.82;;;;;;;30.15;32.59;100604.94;1802610;79;21363;-63
2021/07/15 08:38:26;;;;;;;5.65;1.70;;;;;;;30.21;32.37;100606.59;1773964;79;21206;-62
2021/07/15 08:41:32;;;;;;;4.83;1.90;;;;;;;30.24;32.11;100597.52;1734840;82;21200;-61
2021/07/15 08:44:39;;;;;;;3.72;1.65;;;;;;;30.28;31.85;100600.03;1718831;82;21715;-64
2021/07/15 08:47:49;;;;;;;2.15;1.70;;;;;;;30.31;31.96;100598.02;1801659;79;21437;-62
2021/07/15 08:50:56;;;;;;;1.77;1.22;;;;;;;30.35;31.21;100596.25;1733386;82;21575;-64
2021/07/15 08:54:06;;;;;;;5.72;2.45;;;;;;;30.40;30.75;100591.95;1802125;79;22199;-63
2021/07/15 08:57:14;;;;;;;4.20;1.70;;;;;;;30.46;31.00;100594.98;1725517;82;21235;-63
2021/07/15 09:00:24;;;;;;;4.00;1.95;;;;;;;30.52;31.16;100596.59;1787918;79;21316;-61
2021/07/15 09:03:35;;;;;;;2.35;1.60;;;;;;;30.59;31.68;100591.99;1783494;79;21193;-61
2021/07/15 09:06:46;;;;;;;2.65;1.98;;;;;;;30.65;31.34;100583.73;1775244;79;21242;-60
2021/07/15 09:09:56;;;;;;;2.95;1.52;;;;;;;30.71;31.23;100584.50;1799345;79;21196;-59
2021/07/15 09:13:05;;;;;;;5.80;1.87;;;;;;;30.76;31.20;100586.73;1801494;79;21209;-60
2021/07/15 09:16:21;;;;;;;3.55;1.90;;;;;;;30.81;31.01;100578.74;1801327;79;21358;-58
2021/07/15 09:19:33;;;;;;;4.15;1.50;;;;;;;30.85;30.60;100575.56;1779215;79;21236;-60
2021/07/15 09:22:39;;;;;;;3.22;1.30;;;;;;;31.02;30.92;100571.62;1762210;80;21212;-62
2021/07/15 09:25:53;;;;;;;3.33;1.42;;;;;;;31.02;30.92;100571.62;1768714;80;21173;-62
2021/07/15 09:29:00;;;;;;;4.70;1.75;;;;;;;31.10;30.22;100574.61;1768927;80;21208;-60
2021/07/15 09:32:08;;;;;;;3.08;1.50;;;;;;;31.18;29.65;100568.26;1769701;80;21193;-62
2021/07/15 09:35:15;;;;;;;1.55;1.45;;;;;;;31.24;29.68;100571.86;1770667;80;21201;-61
2021/07/15 09:38:30;;;;;;;;;;;;;;;31.28;29.84;100566.69;1773820;79;21596;-60
2021/07/15 09:41:35;;;;;;;8.08;1.82;;;;;;;31.38;30.27;100561.47;1772723;79;20211;-60
2021/07/15 09:44:46;;;;;;;4.35;1.70;;;;;;;31.46;30.33;100565.02;1771309;79;21741;-60
2021/07/15 09:47:55;;;;;;;4.95;1.60;;;;;;;31.53;30.46;100563.45;1793260;79;21762;-59
2021/07/15 09:51:03;;;;;;;2.20;1.60;;;;;;;31.62;30.38;100562.19;1790325;79;21323;-58
2021/07/15 09:54:11;;;;;;;2.37;1.40;;;;;;;31.72;29.33;100570.47;1803249;79;21217;-59
2021/07/15 09:57:17;;;;;;;5.03;2.25;;;;;;;31.76;28.83;100565.89;1795992;79;21730;-59
2021/07/15 10:00:24;;;;;;;6.00;1.67;;;;;;;31.82;29.24;100557.55;1784422;80;21197;-60
2021/07/15 10:03:30;;;;;;;4.33;1.40;;;;;;;31.85;29.13;100559.80;1780520;79;21244;-61
2021/07/15 10:06:53;;;;;;;2.83;1.52;;;;;;;31.91;28.45;100552.30;1794662;79;21873;-67
2021/07/15 10:10:26;;;;;;;3.45;1.50;;;;;;;31.98;28.77;100553.31;1776696;79;21177;-66
2021/07/15 10:13:32;;;;;;;3.52;1.60;;;;;;;32.05;27.97;100555.73;1762674;80;21805;-66
2021/07/15 10:16:50;;;;;;;5.33;1.87;;;;;;;32.14;27.92;100544.78;1787549;79;21157;-67
2021/07/15 10:20:18;;;;;;;3.15;1.32;;;;;;;32.24;27.95;100549.40;1733797;82;21745;-67
2021/07/15 10:23:42;;;;;;;3.35;1.70;;;;;;;32.34;27.98;100543.50;1732510;82;21774;-67
2021/07/15 10:27:16;;;;;;;3.17;1.45;;;;;;;32.45;26.84;100535.06;1759153;81;21789;-68
2021/07/15 10:30:28;;;;;;;3.55;1.47;;;;;;;32.54;27.06;100537.44;1721454;83;21245;-64
2021/07/15 10:33:35;;;;;;;6.05;1.47;;;;;;;32.67;27.27;100540.81;1720088;83;21245;-65
2021/07/15 10:36:42;;;;;;;4.20;1.67;;;;;;;32.76;26.84;100539.73;1723216;82;21367;-66
2021/07/15 10:39:51;;;;;;;3.08;1.40;;;;;;;32.81;26.28;100528.87;1769263;81;21212;-67
2021/07/15 10:42:55;;;;;;;4.72;1.70;;;;;;;32.86;27.14;100531.57;1783392;79;21174;-65
2021/07/15 10:46:02;;;;;;;4.62;1.55;;;;;;;32.93;26.89;100524.36;1801197;77;21422;-66
2021/07/15 10:49:09;;;;;;;4.87;1.82;;;;;;;33.00;26.94;100532.39;1795891;79;21182;-65
2021/07/15 10:52:18;;;;;;;3.52;1.62;;;;;;;33.07;27.51;100519.47;1786151;79;21774;-63
2021/07/15 10:55:24;;;;;;;3.90;1.90;;;;;;;33.15;27.83;100527.21;1774766;79;21178;-68
2021/07/15 10:58:51;;;;;;;2.30;1.70;;;;;;;33.21;27.80;100509.45;1782812;79;21168;-65
2021/07/15 11:01:59;;;;;;;5.35;2.00;;;;;;;33.33;27.79;100511.16;1781735;79;21177;-67
2021/07/15 11:05:05;;;;;;;2.52;1.60;;;;;;;33.46;28.50;100512.27;1804096;79;21307;-66
2021/07/15 11:08:14;;;;;;;2.37;1.80;;;;;;;33.54;27.59;100511.48;1801625;79;22145;-66
2021/07/15 11:11:21;;;;;;;4.75;1.87;;;;;;;33.58;27.37;100503.98;1791222;78;21367;-67
2021/07/15 11:14:49;;;;;;;3.27;1.60;;;;;;;33.58;26.98;100503.98;1788666;79;21614;-65
2021/07/15 11:18:01;;;;;;;6.20;1.80;;;;;;;33.57;27.36;100502.31;1786891;79;21950;-64
2021/07/15 11:21:36;;;;;;;4.47;1.80;;;;;;;33.62;27.26;100495.91;1771522;80;21718;-63
2021/07/15 11:24:48;;;;;;;4.12;1.65;;;;;;;33.71;27.96;100493.97;1776718;79;21249;-66
2021/07/15 11:27:59;;;;;;;3.73;1.80;;;;;;;33.83;27.22;100494.75;1772845;80;22047;-64
2021/07/15 11:31:06;;;;;;;3.25;2.02;;;;;;;33.94;27.51;100497.59;1779283;79;21868;-65
2021/07/15 11:34:13;;;;;;;2.65;1.60;;;;;;;34.01;26.57;100495.13;1772167;79;21213;-65
2021/07/15 11:37:46;;;;;;;6.20;1.90;;;;;;;34.01;25.95;100490.30;1773094;79;21352;-67
2021/07/15 11:40:52;;;;;;;5.95;1.82;;;;;;;34.00;26.74;100482.09;1793840;79;21693;-66
2021/07/15 11:44:04;;;;;;;4.92;1.82;;;;;;;34.06;26.27;100469.41;1803506;78;21185;-67
2021/07/15 11:47:11;;;;;;;3.37;1.60;;;;;;;34.12;26.98;100470.92;1800094;79;21189;-65
2021/07/15 11:50:41;;;;;;;3.47;1.60;;;;;;;34.20;26.99;100465.85;1802226;79;21320;-66
2021/07/15 11:53:45;;;;;;;3.67;1.50;;;;;;;34.30;27.23;100468.40;1770138;81;21220;-64
2021/07/15 11:57:00;;;;;;;3.47;1.55;;;;;;;34.40;26.12;100471.78;1770008;81;21189;-67
2021/07/15 12:00:17;;;;;;;3.72;1.55;;;;;;;34.44;25.68;100467.70;1770314;80;21204;-63
2021/07/15 12:03:24;;;;;;;2.92;1.55;;;;;;;34.45;24.77;100470.78;1769819;81;21213;-67
2021/07/15 12:06:35;;;;;;;5.83;1.67;;;;;;;34.48;25.23;100455.90;1769368;79;21233;-68
2021/07/15 12:10:02;;;;;;;4.90;1.40;;;;;;;34.50;25.67;100453.56;1764922;81;21220;-64
2021/07/15 12:13:10;;;;;;;2.77;1.40;;;;;;;34.48;24.94;100458.74;1793944;79;21213;-67
2021/07/15 12:16:20;;;;;;;9.68;2.10;;;;;;;34.43;25.33;100451.79;1788525;79;22257;-65
2021/07/15 12:19:29;;;;;;;5.37;1.50;;;;;;;34.40;25.96;100444.77;1763629;80;21348;-68
2021/07/15 12:22:36;;;;;;;4.03;1.30;;;;;;;34.34;25.20;100445.23;1770459;80;21181;-68
2021/07/15 12:25:43;;;;;;;7.33;2.02;;;;;;;34.27;25.70;100434.91;1770308;81;21188;-60
2021/07/15 12:28:54;;;;;;;5.53;2.08;;;;;;;34.24;26.37;100449.80;1770561;80;21230;-67
2021/07/15 12:32:02;;;;;;;4.30;1.77;;;;;;;34.23;25.63;100442.45;1770850;81;21261;-65
2021/07/15 12:35:07;;;;;;;10.40;2.80;;;;;;;34.26;26.85;100434.67;1770710;80;21865;-64
2021/07/15 12:38:37;;;;;;;5.03;1.90;;;;;;;34.27;26.38;100439.18;1766046;80;21205;-67
2021/07/15 12:41:49;;;;;;;2.50;1.80;;;;;;;34.24;26.22;100435.01;1765884;80;21169;-67
2021/07/15 12:44:58;;;;;;;7.20;1.60;;;;;;;34.16;26.02;100425.88;1772365;79;21208;-68
2021/07/15 12:48:11;;;;;;;3.22;1.55;;;;;;;34.13;26.40;100429.38;1770938;79;21197;-66
2021/07/15 12:51:19;;;;;;;5.08;1.67;;;;;;;34.11;25.85;100424.60;1801532;79;21161;-68
2021/07/15 12:54:48;;;;;;;4.37;1.70;;;;;;;34.08;26.67;100423.84;1798792;79;22142;-66
2021/07/15 12:57:51;;;;;;;7.03;1.80;;;;;;;34.06;26.20;100417.64;1769766;81;21851;-67
2021/07/15 13:00:56;;;;;;;3.87;1.70;;;;;;;34.05;26.77;100423.66;1769505;81;21723;-67
2021/07/15 13:04:19;;;;;;;5.05;1.82;;;;;;;34.04;26.94;100419.16;1770489;81;21585;-66
2021/07/15 13:07:26;;;;;;;3.10;1.60;;;;;;;34.06;26.38;100414.80;1771010;80;21821;-65
2021/07/15 13:14:15;;;;;;;3.25;1.60;;;;;;;33.99;25.88;100410.20;1770670;81;21197;-67
2021/07/15 13:17:30;;;;;;;5.00;1.80;;;;;;;33.95;26.23;100405.52;1771218;79;21209;-67
2021/07/15 13:20:37;;;;;;;;;;;;;;;33.97;26.39;100396.91;1774381;80;21892;-64
2021/07/15 13:23:45;;;;;;;3.25;1.40;;;;;;;33.99;27.03;100388.89;1774106;79;20229;-65
2021/07/15 13:27:04;;;;;;;3.62;1.42;;;;;;;34.05;26.74;100389.55;1735115;82;21232;-65
2021/07/15 13:30:10;;;;;;;4.87;1.70;;;;;;;34.08;27.36;100387.47;1703020;83;21246;-66
2021/07/15 13:33:32;;;;;;;5.65;1.60;;;;;;;34.11;27.69;100386.23;1710487;83;21205;-66
2021/07/15 13:36:37;;;;;;;4.78;1.85;;;;;;;34.14;26.38;100382.72;1751186;82;21457;-66
2021/07/15 13:39:54;;;;;;;6.03;1.55;;;;;;;34.14;25.98;100386.17;1735623;82;21204;-65
2021/07/15 13:43:26;;;;;;;6.25;2.20;;;;;;;34.11;25.91;100386.84;1751619;81;21261;-62
2021/07/15 13:46:33;;;;;;;2.47;1.50;;;;;;;34.07;26.37;100383.81;1735182;82;21251;-64
2021/07/15 13:49:42;;;;;;;5.25;2.40;;;;;;;34.04;27.33;100388.74;1754551;80;21230;-62
2021/07/15 13:52:51;;;;;;;4.28;1.60;;;;;;;34.02;27.30;100385.96;1734774;81;21772;-64
2021/07/15 13:56:00;;;;;;;4.00;1.70;;;;;;;33.99;28.12;100391.73;1796002;79;21844;-69
2021/07/15 13:59:08;;;;;;;7.83;1.87;;;;;;;34.01;28.13;100385.72;1755442;79;21741;-68
2021/07/15 14:02:21;;;;;;;2.60;1.75;;;;;;;33.99;28.07;100380.94;1702059;81;21188;-59
2021/07/15 14:05:41;;;;;;;2.83;1.80;;;;;;;33.98;28.13;100382.13;1772731;79;21185;-60
2021/07/15 14:08:49;;;;;;;4.47;2.02;;;;;;;33.97;28.02;100379.00;1771719;80;21213;-60
2021/07/15 14:11:56;;;;;;;8.53;2.20;;;;;;;33.97;27.84;100388.38;1771846;80;21181;-59
2021/07/15 14:15:02;;;;;;;3.92;1.80;;;;;;;33.91;28.01;100377.49;1764158;81;21189;-59
2021/07/15 14:18:22;;;;;;;3.77;1.57;;;;;;;33.89;28.39;100378.36;1772168;80;21371;-59
2021/07/15 14:21:30;;;;;;;7.35;1.77;;;;;;;33.89;28.09;100378.36;1772314;80;21840;-59
2021/07/15 14:24:37;;;;;;;6.00;1.80;;;;;;;33.86;27.93;100373.34;1780435;79;21386;-57
2021/07/15 14:27:45;;;;;;;7.25;1.90;;;;;;;33.87;28.44;100369.36;1782888;80;21197;-56
2021/07/15 14:30:52;;;;;;;5.37;1.70;;;;;;;33.85;28.17;100371.69;1770824;80;21307;-57
2021/07/15 14:33:58;;;;;;;3.92;1.55;;;;;;;33.79;28.11;100361.64;1771818;80;21177;-57
2021/07/15 14:37:05;;;;;;;4.08;1.95;;;;;;;33.77;28.05;100363.97;1771428;80;21794;-58
2021/07/15 14:40:15;;;;;;;5.40;1.67;;;;;;;33.77;27.97;100361.12;1771493;80;21327;-59